createdAt,value
2022-10-30T00:01:59.660Z,21.75
2022-10-30T00:07:06.208Z,23.98
2022-10-30T00:12:09.323Z,23.83
2022-10-30T00:14:40.988Z,22.88
2022-10-30T00:17:12.901Z,25.05
2022-10-30T00:19:47.104Z,23.60
2022-10-30T00:22:21.287Z,23.65
2022-10-30T00:25:00.122Z,23.98
2022-10-30T00:27:34.797Z,23.73
2022-10-30T00:30:07.183Z,23.45
2022-10-30T00:32:41.427Z,24.08
2022-10-30T00:35:13.088Z,23.52
2022-10-30T00:37:45.050Z,24.00
2022-10-30T00:40:18.200Z,23.90
2022-10-30T00:42:49.859Z,22.75
2022-10-30T00:45:21.541Z,23.52
2022-10-30T00:48:00.146Z,25.75
2022-10-30T00:50:39.495Z,24.35
2022-10-30T00:53:17.741Z,26.15
2022-10-30T00:55:56.344Z,26.42
2022-10-30T00:58:36.304Z,24.70
2022-10-30T01:01:19.981Z,25.60
2022-10-30T01:03:56.557Z,24.77
2022-10-30T01:06:34.587Z,26.42
2022-10-30T01:09:09.060Z,26.88
2022-10-30T01:14:17.381Z,26.63
2022-10-30T01:17:02.957Z,26.80
2022-10-30T01:20:03.533Z,26.25
2022-10-30T01:22:54.734Z,25.88
2022-10-30T01:25:44.595Z,26.42
2022-10-30T01:28:38.337Z,26.30
2022-10-30T01:31:50.432Z,25.95
2022-10-30T01:34:53.379Z,25.75
2022-10-30T01:37:34.040Z,24.25
2022-10-30T01:40:13.500Z,26.10
2022-10-30T01:42:52.729Z,26.27
2022-10-30T01:45:56.525Z,27.02
2022-10-30T01:48:52.673Z,25.67
2022-10-30T01:51:52.508Z,26.55
2022-10-30T01:54:58.632Z,27.40
2022-10-30T01:57:58.004Z,25.02
2022-10-30T02:00:32.335Z,24.58
2022-10-30T02:03:05.327Z,24.77
2022-10-30T02:05:48.646Z,23.60
2022-10-30T02:08:24.569Z,24.38
2022-10-30T02:10:58.255Z,24.30
2022-10-30T02:13:46.002Z,24.45
2022-10-30T02:16:19.293Z,23.30
2022-10-30T02:18:50.914Z,22.98
2022-10-30T02:21:22.549Z,22.60
2022-10-30T02:23:55.855Z,22.83
2022-10-30T02:26:27.495Z,23.48
2022-10-30T02:28:59.191Z,23.15
2022-10-30T02:31:30.883Z,22.58
2022-10-30T02:34:02.698Z,24.95
2022-10-30T02:36:38.005Z,23.20
2022-10-30T02:39:12.455Z,23.92
2022-10-30T02:41:51.181Z,23.73
2022-10-30T02:44:22.813Z,22.60
2022-10-30T02:46:54.413Z,22.08
2022-10-30T02:49:27.519Z,24.33
2022-10-30T02:51:59.360Z,23.85
2022-10-30T02:54:35.088Z,24.02
2022-10-30T02:57:10.197Z,23.77
2022-10-30T02:59:42.927Z,21.98
2022-10-30T03:02:17.388Z,22.50
2022-10-30T03:04:49.099Z,21.35
2022-10-30T03:07:20.798Z,23.05
2022-10-30T03:09:55.528Z,21.92
2022-10-30T03:12:27.125Z,22.05
2022-10-30T03:15:01.783Z,23.15
2022-10-30T03:17:33.436Z,24.08
2022-10-30T03:20:05.482Z,25.35
2022-10-30T03:22:38.504Z,26.33
2022-10-30T03:25:12.124Z,28.97
2022-10-30T03:27:52.850Z,28.48
2022-10-30T03:30:25.360Z,30.83
2022-10-30T03:32:59.106Z,30.15
2022-10-30T03:35:32.849Z,31.92
2022-10-30T03:38:04.537Z,31.52
2022-10-30T03:40:37.337Z,33.47
2022-10-30T03:43:09.540Z,36.97
2022-10-30T03:45:49.319Z,34.63
2022-10-30T03:48:24.721Z,35.05
2022-10-30T03:50:57.997Z,33.88
2022-10-30T03:53:30.191Z,33.25
2022-10-30T03:56:04.639Z,33.05
2022-10-30T03:59:00.884Z,34.45
2022-10-30T04:01:36.386Z,31.73
2022-10-30T04:04:08.310Z,33.20
2022-10-30T04:06:40.022Z,32.33
2022-10-30T04:09:19.050Z,31.73
2022-10-30T04:11:50.833Z,30.10
2022-10-30T04:14:25.251Z,33.65
2022-10-30T04:16:56.990Z,34.70
2022-10-30T04:19:28.595Z,33.78
2022-10-30T04:22:00.270Z,32.63
2022-10-30T04:24:32.088Z,29.50
2022-10-30T04:27:06.916Z,30.90
2022-10-30T04:32:10.739Z,26.73
2022-10-30T04:34:42.760Z,26.40
2022-10-30T04:37:14.553Z,26.45
2022-10-30T04:39:48.676Z,26.33
2022-10-30T04:42:25.747Z,27.83
2022-10-30T04:44:58.991Z,29.52
2022-10-30T04:47:30.940Z,27.50
2022-10-30T04:50:02.868Z,28.48
2022-10-30T04:52:37.681Z,29.85
2022-10-30T04:55:10.808Z,27.63
2022-10-30T04:57:42.969Z,23.93
2022-10-30T05:00:14.819Z,25.63
2022-10-30T05:02:46.590Z,24.77
2022-10-30T05:05:18.270Z,25.30
2022-10-30T05:07:49.910Z,23.40
2022-10-30T05:10:22.944Z,19.75
2022-10-30T05:13:00.643Z,19.83
2022-10-30T05:15:38.325Z,24.98
2022-10-30T05:18:16.059Z,25.70
2022-10-30T05:20:50.980Z,22.60
2022-10-30T05:23:25.457Z,24.02
2022-10-30T05:25:57.140Z,28.75
2022-10-30T05:28:33.340Z,27.73
2022-10-30T05:31:05.210Z,22.73
2022-10-30T05:33:58.664Z,20.67
2022-10-30T05:36:34.208Z,19.67
2022-10-30T05:39:06.734Z,21.42
2022-10-30T05:41:45.501Z,22.20
2022-10-30T05:44:34.207Z,23.55
2022-10-30T05:47:12.901Z,23.63
2022-10-30T05:49:49.449Z,24.25
2022-10-30T05:52:27.284Z,23.15
2022-10-30T05:55:03.498Z,29.13
2022-10-30T05:57:46.692Z,27.42
2022-10-30T06:00:18.413Z,29.23
2022-10-30T06:02:50.013Z,27.48
2022-10-30T06:05:21.666Z,29.23
2022-10-30T06:07:57.233Z,27.20
2022-10-30T06:10:29.357Z,30.98
2022-10-30T06:13:23.096Z,29.55
2022-10-30T06:16:16.258Z,26.13
2022-10-30T06:19:08.045Z,26.58
2022-10-30T06:21:50.100Z,28.70
2022-10-30T06:24:47.077Z,27.30
2022-10-30T06:27:44.475Z,27.70
2022-10-30T06:30:20.155Z,26.73
2022-10-30T06:33:02.693Z,28.38
2022-10-30T06:35:34.903Z,27.35
2022-10-30T06:38:08.755Z,26.45
2022-10-30T06:40:41.145Z,31.17
2022-10-30T06:43:27.792Z,27.88
2022-10-30T06:46:03.406Z,26.90
2022-10-30T06:48:36.986Z,26.65
2022-10-30T06:51:08.775Z,25.40
2022-10-30T06:56:50.611Z,24.25
2022-10-30T06:59:47.199Z,30.80
2022-10-30T07:03:02.076Z,26.75
2022-10-30T07:05:37.613Z,26.63
2022-10-30T07:10:41.568Z,26.83
2022-10-30T07:13:32.132Z,25.13
2022-10-30T07:16:22.550Z,25.70
2022-10-30T07:18:59.280Z,26.15
2022-10-30T07:21:35.835Z,26.83
2022-10-30T07:24:11.546Z,25.00
2022-10-30T07:26:55.976Z,24.75
2022-10-30T07:29:53.741Z,24.95
2022-10-30T07:32:46.225Z,24.85
2022-10-30T07:35:38.857Z,28.42
2022-10-30T07:38:28.175Z,27.15
2022-10-30T07:41:07.645Z,26.20
2022-10-30T07:43:54.417Z,25.25
2022-10-30T07:46:47.814Z,24.13
2022-10-30T07:52:14.490Z,22.95
2022-10-30T07:54:50.451Z,23.83
2022-10-30T07:57:43.178Z,21.98
2022-10-30T08:00:23.660Z,21.65
2022-10-30T08:03:05.260Z,20.02
2022-10-30T08:05:55.516Z,19.33
2022-10-30T08:08:43.108Z,18.75
2022-10-30T08:11:34.433Z,19.20
2022-10-30T08:14:07.704Z,20.75
2022-10-30T08:16:39.348Z,19.30
2022-10-30T08:19:12.368Z,19.70
2022-10-30T08:24:25.344Z,18.33
2022-10-30T08:26:58.806Z,16.30
2022-10-30T08:29:32.491Z,16.10
2022-10-30T08:32:04.649Z,15.05
2022-10-30T08:35:01.904Z,14.52
2022-10-30T08:37:39.562Z,14.35
2022-10-30T08:40:11.386Z,14.60
2022-10-30T08:43:02.939Z,14.45
2022-10-30T08:45:37.174Z,15.93
2022-10-30T08:48:16.287Z,18.17
2022-10-30T08:50:51.238Z,17.45
2022-10-30T08:53:30.873Z,16.25
2022-10-30T08:56:02.932Z,17.67
2022-10-30T08:58:46.387Z,17.10
2022-10-30T09:01:19.692Z,17.23
2022-10-30T09:04:15.588Z,17.48
2022-10-30T09:06:56.067Z,17.20
2022-10-30T09:09:48.555Z,18.58
2022-10-30T09:12:24.375Z,16.40
2022-10-30T09:14:56.008Z,16.27
2022-10-30T09:17:27.811Z,15.10
2022-10-30T09:20:00.393Z,16.33
2022-10-30T09:22:41.670Z,15.65
2022-10-30T09:25:15.923Z,14.50
2022-10-30T09:27:53.789Z,13.35
2022-10-30T09:30:28.613Z,16.50
2022-10-30T09:33:02.675Z,21.73
2022-10-30T09:35:54.660Z,22.23
2022-10-30T09:38:26.537Z,22.30
2022-10-30T09:41:18.618Z,21.55
2022-10-30T09:44:07.261Z,21.70
2022-10-30T09:47:06.332Z,22.50
2022-10-30T09:50:15.833Z,21.38
2022-10-30T09:53:50.025Z,21.02
2022-10-30T09:56:39.097Z,22.67
2022-10-30T09:59:36.351Z,23.58
2022-10-30T10:02:27.742Z,21.98
2022-10-30T10:05:20.410Z,22.08
2022-10-30T10:08:17.467Z,23.95
2022-10-30T10:11:28.896Z,25.92
2022-10-30T10:14:14.916Z,25.50
2022-10-30T10:16:54.560Z,25.10
2022-10-30T10:19:34.641Z,24.02
2022-10-30T10:22:17.406Z,26.50
2022-10-30T10:24:49.817Z,25.20
2022-10-30T10:28:09.635Z,25.88
2022-10-30T10:30:50.192Z,23.33
2022-10-30T10:33:43.380Z,24.45
2022-10-30T10:36:55.366Z,23.98
2022-10-30T10:39:46.558Z,23.45
2022-10-30T10:42:47.913Z,23.25
2022-10-30T10:45:29.461Z,22.98
2022-10-30T10:48:25.375Z,23.75
2022-10-30T10:51:33.716Z,25.40
2022-10-30T10:54:15.049Z,25.02
2022-10-30T10:56:56.011Z,24.27
2022-10-30T10:59:38.512Z,23.50
2022-10-30T11:02:32.057Z,24.08
2022-10-30T11:05:31.247Z,24.08
2022-10-30T11:08:25.329Z,24.05
2022-10-30T11:11:07.562Z,23.17
2022-10-30T11:13:45.558Z,22.65
2022-10-30T11:16:38.515Z,24.08
2022-10-30T11:19:10.104Z,24.35
2022-10-30T11:21:54.535Z,21.98
2022-10-30T11:24:34.031Z,21.38
2022-10-30T11:27:28.619Z,23.25
2022-10-30T11:30:06.127Z,21.38
2022-10-30T11:32:37.772Z,21.80
2022-10-30T11:35:09.364Z,21.45
2022-10-30T11:37:43.265Z,21.80
2022-10-30T11:40:15.004Z,21.60
2022-10-30T11:42:54.784Z,21.58
2022-10-30T11:45:37.752Z,21.58
2022-10-30T11:48:18.380Z,22.00
2022-10-30T11:50:54.875Z,21.70
2022-10-30T11:53:52.180Z,22.13
2022-10-30T11:56:23.819Z,21.92
2022-10-30T11:58:59.740Z,21.95
2022-10-30T12:01:36.847Z,21.23
2022-10-30T12:04:28.298Z,23.15
2022-10-30T12:07:28.003Z,23.58
2022-10-30T12:10:01.704Z,23.48
2022-10-30T12:12:41.919Z,22.08
2022-10-30T12:15:13.452Z,21.40
2022-10-30T12:17:53.322Z,22.30
2022-10-30T12:20:26.175Z,21.13
2022-10-30T12:23:00.632Z,22.60
2022-10-30T12:25:32.998Z,21.83
2022-10-30T12:28:06.519Z,21.92
2022-10-30T12:30:52.547Z,21.47
2022-10-30T12:33:50.362Z,22.08
2022-10-30T12:36:37.636Z,21.40
2022-10-30T12:39:19.535Z,22.38
2022-10-30T12:42:11.487Z,21.50
2022-10-30T12:44:54.452Z,20.88
2022-10-30T12:47:52.299Z,20.90
2022-10-30T12:50:27.921Z,22.13
2022-10-30T12:53:07.257Z,22.75
2022-10-30T12:55:45.214Z,24.00
2022-10-30T12:58:33.795Z,23.25
2022-10-30T13:01:12.357Z,23.27
2022-10-30T13:03:51.394Z,24.73
2022-10-30T13:06:28.543Z,22.65
2022-10-30T13:09:49.104Z,23.42
2022-10-30T13:12:30.683Z,22.77
2022-10-30T13:15:21.788Z,22.40
2022-10-30T13:20:45.414Z,21.52
2022-10-30T13:23:28.677Z,23.13
2022-10-30T13:26:13.437Z,23.42
2022-10-30T13:29:30.789Z,24.75
2022-10-30T13:32:38.684Z,24.35
2022-10-30T13:35:20.662Z,23.77
2022-10-30T13:38:14.172Z,23.90
2022-10-30T13:41:08.298Z,22.55
2022-10-30T13:44:25.188Z,23.02
2022-10-30T13:46:57.092Z,23.73
2022-10-30T13:49:57.029Z,24.35
2022-10-30T13:52:36.550Z,25.90
2022-10-30T13:55:19.341Z,24.08
2022-10-30T13:58:19.823Z,26.02
2022-10-30T14:01:56.403Z,25.70
2022-10-30T14:04:50.429Z,25.73
2022-10-30T14:07:38.998Z,23.40
2022-10-30T14:10:55.929Z,25.10
2022-10-30T14:13:56.747Z,23.33
2022-10-30T14:16:40.419Z,23.45
2022-10-30T14:19:15.038Z,23.63
2022-10-30T14:21:57.758Z,23.73
2022-10-30T14:24:44.114Z,22.83
2022-10-30T14:27:26.962Z,23.85
2022-10-30T14:30:00.255Z,24.15
2022-10-30T14:32:42.290Z,24.67
2022-10-30T14:35:38.291Z,24.02
2022-10-30T14:38:09.870Z,25.10
2022-10-30T14:40:57.086Z,23.25
2022-10-30T14:43:57.533Z,23.63
2022-10-30T14:46:57.729Z,24.25
2022-10-30T14:49:42.767Z,24.52
2022-10-30T14:52:27.288Z,23.52
2022-10-30T14:55:14.194Z,23.30
2022-10-30T14:58:05.967Z,24.73
2022-10-30T15:00:40.809Z,27.88
2022-10-30T15:03:13.517Z,26.65
2022-10-30T15:06:03.207Z,25.90
2022-10-30T15:09:26.467Z,22.83
2022-10-30T15:12:20.862Z,25.90
2022-10-30T15:14:59.500Z,25.40
2022-10-30T15:17:36.950Z,26.40
2022-10-30T15:20:25.060Z,26.42
2022-10-30T15:23:18.299Z,26.55
2022-10-30T15:25:55.723Z,25.23
2022-10-30T15:28:34.560Z,26.83
2022-10-30T15:31:18.420Z,25.65
2022-10-30T15:33:59.671Z,23.77
2022-10-30T15:36:40.896Z,25.77
2022-10-30T15:39:17.484Z,24.85
2022-10-30T15:41:56.976Z,25.75
2022-10-30T15:44:35.207Z,24.45
2022-10-30T15:47:17.048Z,25.13
2022-10-30T15:49:55.161Z,24.23
2022-10-30T15:52:29.615Z,24.80
2022-10-30T15:55:17.051Z,25.02
2022-10-30T15:58:08.906Z,24.50
2022-10-30T16:00:40.578Z,24.27
2022-10-30T16:03:14.968Z,25.23
2022-10-30T16:05:46.671Z,24.08
2022-10-30T16:08:23.725Z,24.85
2022-10-30T16:10:56.682Z,24.98
2022-10-30T16:13:30.938Z,27.52
2022-10-30T16:16:03.541Z,26.98
2022-10-30T16:18:37.075Z,26.85
2022-10-30T16:21:13.957Z,30.17
2022-10-30T16:23:52.162Z,27.55
2022-10-30T16:26:38.086Z,28.05
2022-10-30T16:29:21.208Z,26.38
2022-10-30T16:31:53.687Z,27.90
2022-10-30T16:34:34.803Z,30.50
2022-10-30T16:37:11.077Z,28.00
2022-10-30T16:39:45.736Z,27.33
2022-10-30T16:42:23.446Z,29.80
2022-10-30T16:45:24.423Z,28.95
2022-10-30T16:48:08.920Z,29.52
2022-10-30T16:53:25.952Z,27.85
2022-10-30T16:56:01.652Z,29.02
2022-10-30T16:58:33.382Z,29.00
2022-10-30T17:01:06.708Z,30.65
2022-10-30T17:03:46.563Z,29.42
2022-10-30T17:06:27.260Z,30.25
2022-10-30T17:09:00.937Z,31.52
2022-10-30T17:11:44.531Z,29.45
2022-10-30T17:14:22.001Z,30.52
2022-10-30T17:16:56.441Z,31.10
2022-10-30T17:19:33.922Z,30.88
2022-10-30T17:22:14.352Z,32.10
2022-10-30T17:24:47.679Z,30.92
2022-10-30T17:27:49.345Z,31.23
2022-10-30T17:30:39.316Z,28.80
2022-10-30T17:33:37.874Z,30.60
2022-10-30T17:36:09.578Z,29.65
2022-10-30T17:38:41.166Z,30.52
2022-10-30T17:41:16.922Z,30.27
2022-10-30T17:43:51.628Z,29.65
2022-10-30T17:46:25.536Z,31.27
2022-10-30T17:48:59.126Z,28.65
2022-10-30T17:51:32.388Z,30.73
2022-10-30T17:54:10.006Z,32.42
2022-10-30T17:56:42.126Z,30.48
2022-10-30T17:59:16.158Z,32.38
2022-10-30T18:01:50.766Z,31.50
2022-10-30T18:06:53.991Z,32.30
2022-10-30T18:09:25.589Z,31.83
2022-10-30T18:11:57.181Z,32.75
2022-10-30T18:14:28.820Z,33.08
2022-10-30T18:17:00.529Z,34.78
2022-10-30T18:19:35.235Z,33.10
2022-10-30T18:22:06.875Z,34.65
2022-10-30T18:24:38.931Z,32.95
2022-10-30T18:27:10.561Z,31.23
2022-10-30T18:29:42.148Z,32.65
2022-10-30T18:32:14.779Z,35.08
2022-10-30T18:34:46.406Z,35.50
2022-10-30T18:37:18.058Z,34.40
2022-10-30T18:39:49.669Z,37.38
2022-10-30T18:42:24.145Z,38.65
2022-10-30T18:44:58.024Z,37.30
2022-10-30T18:47:29.636Z,38.55
2022-10-30T18:50:01.276Z,41.05
2022-10-30T18:52:33.147Z,42.08
2022-10-30T18:55:39.376Z,41.60
2022-10-30T18:58:11.940Z,41.40
2022-10-30T19:01:10.439Z,44.05
2022-10-30T19:03:42.037Z,40.80
2022-10-30T19:06:22.334Z,40.75
2022-10-30T19:08:55.243Z,41.08
2022-10-30T19:11:30.257Z,40.92
2022-10-30T19:14:05.981Z,40.50
2022-10-30T19:16:37.603Z,41.92
2022-10-30T19:19:09.497Z,41.35
2022-10-30T19:21:41.143Z,42.90
2022-10-30T19:24:15.149Z,41.60
2022-10-30T19:26:48.005Z,41.67
2022-10-30T19:29:19.604Z,40.63
2022-10-30T19:31:53.935Z,41.45
2022-10-30T19:34:25.574Z,40.00
2022-10-30T19:36:57.223Z,39.05
2022-10-30T19:39:28.881Z,39.65
2022-10-30T19:42:00.511Z,39.53
2022-10-30T19:44:32.107Z,39.55
2022-10-30T19:47:03.726Z,41.15
2022-10-30T19:49:35.353Z,38.65
2022-10-30T19:52:06.988Z,38.65
2022-10-30T19:54:38.582Z,39.50
2022-10-30T19:57:13.842Z,40.70
2022-10-30T19:59:45.472Z,39.33
2022-10-30T20:02:17.189Z,39.35
2022-10-30T20:04:48.931Z,39.85
2022-10-30T20:07:20.606Z,38.53
2022-10-30T20:09:52.221Z,39.83
2022-10-30T20:12:23.860Z,38.67
2022-10-30T20:14:58.427Z,40.38
2022-10-30T20:20:01.498Z,38.38
2022-10-30T20:22:33.132Z,37.10
2022-10-30T20:25:05.099Z,39.20
2022-10-30T20:27:43.195Z,41.38
2022-10-30T20:30:32.733Z,41.08
2022-10-30T20:33:12.142Z,40.53
2022-10-30T20:35:43.757Z,40.50
2022-10-30T20:38:22.200Z,42.95
2022-10-30T20:40:54.344Z,42.63
2022-10-30T20:43:31.792Z,40.08
2022-10-30T20:46:06.027Z,40.67
2022-10-30T20:48:38.077Z,40.70
2022-10-30T20:51:11.254Z,38.00
2022-10-30T20:53:42.888Z,38.60
2022-10-30T20:56:16.762Z,38.70
2022-10-30T20:58:48.392Z,38.38
2022-10-30T21:01:20.120Z,40.45
2022-10-30T21:03:53.774Z,40.80
2022-10-30T21:06:30.197Z,41.15
2022-10-30T21:09:01.840Z,39.10
2022-10-30T21:11:33.749Z,38.80
2022-10-30T21:14:05.400Z,39.13
2022-10-30T21:16:39.928Z,37.22
2022-10-30T21:21:45.412Z,39.53
2022-10-30T21:24:17.132Z,38.35
2022-10-30T21:26:48.706Z,39.08
2022-10-30T21:29:20.315Z,39.42
2022-10-30T21:31:51.903Z,35.78
2022-10-30T21:34:23.579Z,39.40
2022-10-30T21:36:55.194Z,38.60
2022-10-30T21:39:26.820Z,39.55
2022-10-30T21:41:58.496Z,38.30
2022-10-30T21:44:30.170Z,40.97
2022-10-30T21:47:04.661Z,44.50
2022-10-30T21:49:39.711Z,47.90
2022-10-30T21:52:14.364Z,46.42
2022-10-30T21:57:17.364Z,42.53
2022-10-30T21:59:48.967Z,43.65
2022-10-30T22:02:20.612Z,42.83
2022-10-30T22:04:52.263Z,43.00
2022-10-30T22:07:24.163Z,45.45
2022-10-30T22:09:58.796Z,44.85
2022-10-30T22:15:01.969Z,48.42
2022-10-30T22:17:34.960Z,50.72
2022-10-30T22:20:08.828Z,50.38
2022-10-30T22:22:48.829Z,47.38
2022-10-30T22:25:23.530Z,48.70
2022-10-30T22:30:26.605Z,52.58
2022-10-30T22:32:59.450Z,49.88
2022-10-30T22:35:31.253Z,46.58
2022-10-30T22:38:06.966Z,44.67
2022-10-30T22:40:38.774Z,43.28
2022-10-30T22:43:10.435Z,46.28
2022-10-30T22:45:47.233Z,44.33
2022-10-30T22:48:21.904Z,45.25
2022-10-30T22:53:37.619Z,42.72
2022-10-30T22:56:23.787Z,41.80
2022-10-30T22:58:56.441Z,43.10
2022-10-30T23:01:32.489Z,42.78
2022-10-30T23:04:05.422Z,45.30
2022-10-30T23:06:37.614Z,41.03
2022-10-30T23:09:16.068Z,44.45
2022-10-30T23:11:50.994Z,46.17
2022-10-30T23:14:26.945Z,47.20
2022-10-30T23:16:59.931Z,47.40
2022-10-30T23:19:31.568Z,49.17
2022-10-30T23:22:03.219Z,49.15
2022-10-30T23:24:34.787Z,50.40
2022-10-30T23:27:06.386Z,48.70
2022-10-30T23:29:37.948Z,52.13
2022-10-30T23:32:12.703Z,47.20
2022-10-30T23:37:15.709Z,50.00
2022-10-30T23:39:47.597Z,48.05
2022-10-30T23:42:19.186Z,47.53
2022-10-30T23:44:50.745Z,45.03
2022-10-30T23:47:24.795Z,46.85
2022-10-30T23:49:56.428Z,47.35
2022-10-30T23:52:31.009Z,43.88
2022-10-30T23:55:02.627Z,43.40
2022-10-30T23:57:34.219Z,44.17
